createdAt,value
2019-04-28T08:10:34.522Z,31.80
2019-04-28T08:13:14.764Z,32.07
2019-04-28T08:15:55.448Z,33.67
2019-04-28T08:18:31.706Z,31.50
2019-04-28T08:21:07.610Z,33.73
2019-04-28T08:23:47.252Z,32.07
2019-04-28T08:26:18.818Z,31.50
2019-04-28T08:28:53.542Z,32.10
2019-04-28T08:31:36.342Z,31.70
2019-04-28T08:34:11.689Z,31.50
2019-04-28T08:36:50.419Z,31.10
2019-04-28T08:39:30.617Z,31.37
2019-04-28T08:42:13.591Z,30.73
2019-04-28T08:44:54.786Z,31.37
2019-04-28T08:47:37.120Z,31.57
2019-04-28T08:50:18.267Z,32.77
2019-04-28T08:53:00.191Z,31.17
2019-04-28T08:55:43.154Z,31.60
2019-04-28T08:58:19.406Z,30.93
2019-04-28T09:00:54.350Z,31.37
2019-04-28T09:03:32.687Z,31.50
2019-04-28T09:06:07.655Z,31.43
2019-04-28T09:08:42.414Z,31.43
2019-04-28T09:11:17.269Z,31.53
2019-04-28T09:13:52.066Z,32.10
2019-04-28T09:16:26.866Z,31.00
2019-04-28T09:19:02.572Z,31.67
2019-04-28T09:21:42.436Z,32.70
2019-04-28T09:24:46.079Z,31.20
2019-04-28T09:27:20.800Z,31.03
2019-04-28T09:29:55.531Z,31.37
2019-04-28T09:32:32.795Z,31.97
2019-04-28T09:35:07.879Z,33.90
2019-04-28T09:37:42.746Z,32.60
2019-04-28T09:40:17.691Z,32.20
2019-04-28T09:43:14.791Z,32.47
2019-04-28T09:45:53.146Z,31.60
2019-04-28T09:48:30.534Z,32.30
2019-04-28T09:51:05.489Z,32.27
2019-04-28T09:53:40.262Z,32.50
2019-04-28T12:25:59.904Z,33.07
2019-04-28T12:28:34.638Z,31.97
2019-04-28T12:31:09.373Z,32.90
2019-04-28T12:33:44.194Z,32.27
2019-04-28T12:36:18.990Z,32.40
2019-04-28T12:38:53.731Z,32.10
2019-04-28T12:41:28.446Z,31.63
2019-04-28T12:44:03.335Z,32.03
2019-04-28T12:46:38.146Z,31.73
2019-04-28T12:49:19.633Z,31.87
2019-04-28T12:51:56.568Z,33.03
2019-04-28T12:54:33.044Z,32.10
2019-04-28T12:57:07.966Z,32.23
2019-04-28T12:59:53.100Z,31.97
2019-04-28T13:03:01.659Z,32.70
2019-04-28T13:05:38.414Z,31.77
2019-04-28T13:08:13.183Z,31.77
2019-04-28T13:10:47.944Z,31.97
2019-04-28T13:13:22.678Z,32.03
2019-04-28T13:16:00.429Z,32.57
2019-04-28T13:18:36.019Z,32.00
2019-04-28T13:21:10.843Z,32.37
2019-04-28T13:23:45.666Z,32.40
2019-04-28T13:26:20.394Z,32.70
2019-04-28T13:28:55.122Z,32.53
2019-04-28T13:31:32.426Z,32.63
2019-04-28T13:34:08.854Z,32.07
2019-04-28T13:36:43.655Z,32.17
2019-04-28T13:39:25.391Z,32.87
2019-04-28T13:42:00.184Z,31.80
2019-04-28T13:44:52.976Z,32.20
2019-04-28T13:47:27.848Z,32.40
2019-04-28T13:50:11.990Z,32.70
2019-04-28T13:52:46.750Z,31.90
2019-04-28T13:55:40.726Z,33.10
2019-04-28T14:05:14.919Z,32.57
2019-04-28T14:07:49.643Z,32.93
2019-04-28T14:10:24.516Z,32.13
2019-04-28T14:12:59.313Z,31.77
2019-04-28T14:15:34.037Z,32.40
2019-04-28T14:18:08.832Z,31.90
2019-04-28T14:20:43.752Z,33.70
2019-04-28T14:23:18.554Z,32.43
2019-04-28T14:25:53.347Z,33.30
2019-04-28T14:28:28.190Z,32.70
2019-04-28T14:31:03.006Z,32.73
2019-04-28T14:33:38.003Z,32.67
2019-04-28T14:36:12.780Z,32.57
2019-04-28T14:38:47.667Z,32.90
2019-04-28T14:41:22.467Z,31.90
2019-04-28T14:44:07.324Z,32.77
2019-04-28T14:46:52.212Z,32.90
2019-04-28T14:52:31.410Z,33.73
2019-04-28T14:55:29.341Z,35.43
2019-04-28T14:58:18.675Z,33.93
2019-04-28T15:01:02.579Z,35.13
2019-04-28T15:04:07.321Z,33.83
2019-04-28T15:06:55.729Z,33.07
2019-04-28T15:09:49.497Z,32.50
2019-04-28T15:12:28.441Z,34.53
2019-04-28T15:15:48.037Z,33.33
2019-04-28T15:18:42.567Z,34.43
2019-04-28T15:21:17.479Z,33.00
2019-04-28T15:23:52.374Z,33.27
2019-04-28T15:26:27.299Z,32.63
2019-04-28T15:29:02.013Z,32.60
2019-04-28T15:32:02.670Z,33.47
2019-04-28T15:34:38.474Z,33.13
2019-04-28T15:37:15.912Z,32.77
2019-04-28T15:39:53.183Z,32.73
2019-04-28T15:42:29.539Z,32.60
2019-04-28T15:45:04.867Z,32.40
2019-04-28T15:47:45.471Z,32.37
2019-04-28T15:50:25.188Z,34.00
2019-04-28T15:56:26.960Z,33.00
2019-04-28T15:59:27.200Z,32.80
2019-04-28T16:02:03.571Z,32.43
2019-04-28T16:04:38.539Z,31.90
2019-04-28T16:07:24.329Z,31.97
2019-04-28T16:09:49.854Z,32.20
2019-04-28T16:12:24.591Z,32.73
2019-04-28T16:14:59.330Z,31.73
2019-04-28T16:17:34.154Z,32.97
2019-04-28T16:20:08.964Z,32.80
2019-04-28T16:22:43.690Z,32.43
2019-04-28T16:25:18.552Z,32.17
2019-04-28T16:27:53.389Z,32.57
2019-04-28T16:30:28.195Z,32.00
2019-04-28T16:33:02.987Z,32.57
2019-04-28T16:35:43.625Z,31.93
2019-04-28T16:38:19.314Z,32.30
2019-04-28T16:40:54.115Z,32.07
2019-04-28T16:43:28.918Z,32.23
2019-04-28T16:46:03.885Z,32.37
2019-04-28T16:48:38.782Z,32.47
2019-04-28T16:51:14.711Z,32.33
2019-04-28T16:53:50.602Z,32.40
2019-04-28T16:56:47.581Z,32.30
2019-04-28T16:59:43.495Z,32.93
2019-04-28T17:02:30.260Z,33.53
2019-04-28T17:05:06.002Z,32.03
2019-04-28T17:07:52.099Z,32.27
2019-04-28T17:10:17.402Z,32.63
2019-04-28T17:12:52.360Z,32.50
2019-04-28T17:15:30.153Z,32.40
2019-04-28T17:18:04.679Z,32.67
2019-04-28T17:20:39.552Z,32.90
2019-04-28T17:23:14.276Z,32.63
2019-04-28T17:25:49.048Z,32.67
2019-04-28T17:28:23.836Z,33.27
2019-04-28T17:30:58.555Z,32.33
2019-04-28T17:33:33.354Z,32.80
2019-04-28T17:36:08.190Z,32.40
2019-04-28T17:38:43.970Z,32.13
2019-04-28T17:41:18.787Z,32.27
2019-04-28T17:43:55.581Z,31.77
2019-04-28T17:46:30.374Z,31.93
2019-04-28T17:49:05.231Z,32.07
2019-04-28T17:51:39.971Z,32.00
2019-04-28T17:54:14.787Z,32.77
2019-04-28T17:56:49.527Z,32.57
2019-04-28T17:59:24.736Z,34.40
2019-04-28T18:02:21.871Z,35.13
2019-04-28T18:05:18.879Z,32.63
2019-04-28T18:07:58.583Z,33.00
2019-04-28T18:10:34.415Z,32.13
2019-04-28T18:13:09.616Z,32.83
2019-04-28T18:16:04.548Z,33.73
2019-04-28T18:18:42.938Z,34.37
2019-04-28T18:21:17.731Z,32.97
2019-04-28T18:23:52.719Z,32.57
2019-04-28T18:26:27.669Z,35.37
2019-04-28T18:29:04.564Z,35.53
2019-04-28T18:31:52.013Z,34.50
2019-04-28T18:34:55.372Z,35.47
2019-04-28T18:37:49.625Z,32.90
2019-04-28T18:40:42.554Z,33.57
2019-04-28T18:43:44.010Z,32.63
2019-04-28T18:46:25.110Z,33.80
2019-04-28T18:49:00.425Z,35.60
2019-04-28T18:51:35.946Z,34.00
2019-04-28T18:54:14.075Z,35.10
2019-04-28T18:57:08.171Z,35.80
2019-04-28T18:59:49.544Z,34.43
2019-04-28T19:02:43.645Z,34.33
2019-04-28T19:05:39.946Z,33.47
2019-04-28T19:08:22.955Z,34.20
2019-04-28T19:11:08.159Z,32.87
2019-04-28T19:13:48.183Z,33.03
2019-04-28T19:16:50.601Z,33.30
2019-04-28T19:19:26.913Z,33.83
2019-04-28T19:22:01.914Z,35.23
2019-04-28T19:24:38.268Z,33.93
2019-04-28T19:27:13.103Z,34.43
2019-04-28T19:29:48.228Z,35.67
2019-04-28T19:32:23.215Z,36.90
2019-04-28T19:34:58.251Z,37.77
2019-04-28T19:37:36.600Z,39.47
2019-04-28T19:40:11.898Z,36.23
2019-04-28T19:42:47.015Z,35.57
2019-04-28T19:46:00.220Z,35.73
2019-04-28T19:48:35.516Z,36.20
2019-04-28T19:54:05.069Z,36.33
2019-04-28T19:56:50.866Z,35.53
2019-04-28T19:59:32.987Z,37.63
2019-04-28T20:02:29.446Z,34.93
2019-04-28T20:05:04.790Z,34.23
2019-04-28T20:07:41.889Z,34.33
2019-04-28T20:10:17.043Z,34.43
2019-04-28T20:12:52.109Z,34.33
2019-04-28T20:15:28.241Z,33.70
2019-04-28T20:18:03.235Z,32.83
2019-04-28T20:20:38.443Z,33.13
2019-04-28T20:23:13.308Z,32.70
2019-04-28T20:25:48.136Z,33.07
2019-04-28T20:28:22.933Z,32.47
2019-04-28T20:30:57.753Z,32.87
2019-04-28T20:33:32.479Z,32.23
2019-04-28T20:36:13.739Z,31.87
2019-04-28T20:38:50.594Z,32.00
2019-04-28T20:41:29.320Z,31.90
2019-04-28T20:44:04.188Z,32.30
2019-04-28T20:46:38.935Z,32.57
2019-04-28T20:49:13.779Z,32.60
2019-04-28T20:51:48.510Z,32.50
2019-04-28T20:54:23.226Z,32.70
2019-04-28T20:56:57.977Z,32.47
2019-04-28T20:59:32.693Z,32.23
2019-04-28T21:02:07.524Z,32.43
2019-04-28T21:04:42.346Z,32.00
2019-04-28T21:07:17.090Z,32.17
2019-04-28T21:09:51.806Z,32.73
2019-04-28T21:12:26.634Z,32.27
2019-04-28T21:15:01.548Z,33.27
2019-04-28T21:17:37.178Z,31.70
2019-04-28T21:20:13.124Z,33.07
2019-04-28T21:22:47.887Z,32.53
2019-04-28T21:25:22.705Z,32.37
2019-04-28T21:27:57.431Z,32.23
2019-04-28T21:30:32.179Z,31.97
2019-04-28T21:33:06.971Z,32.53
2019-04-28T21:35:41.703Z,32.43
2019-04-28T21:38:16.423Z,32.63
2019-04-28T21:40:51.214Z,32.53
2019-04-28T21:43:54.106Z,32.37
2019-04-28T21:46:46.163Z,33.03
2019-04-28T21:49:31.542Z,33.57
2019-04-28T21:52:06.412Z,32.40
2019-04-28T21:54:41.206Z,32.97
2019-04-28T21:57:16.910Z,33.03
2019-04-28T21:59:51.635Z,32.37
2019-04-28T22:02:27.475Z,32.67
2019-04-28T22:05:02.215Z,32.37
2019-04-28T22:07:37.109Z,31.80
2019-04-28T22:10:11.917Z,32.27
2019-04-28T22:12:46.675Z,33.20
2019-04-28T22:15:21.418Z,32.10
2019-04-28T22:17:56.155Z,32.17
2019-04-28T22:20:30.890Z,32.80
2019-04-28T22:23:18.315Z,32.17
2019-04-28T22:25:44.619Z,32.47
2019-04-28T22:28:19.370Z,32.80
2019-04-28T22:30:54.083Z,33.27
2019-04-28T22:33:28.814Z,32.53
2019-04-28T22:36:04.155Z,31.87
2019-04-28T22:38:38.894Z,32.03
2019-04-28T22:41:13.607Z,32.07
2019-04-28T22:43:48.355Z,31.57
2019-04-28T22:46:24.172Z,31.73
2019-04-28T22:49:00.671Z,32.23
2019-04-28T22:51:35.747Z,32.23
2019-04-28T22:54:16.411Z,31.90
2019-04-28T22:56:57.135Z,31.77
2019-04-28T22:59:35.967Z,32.60
2019-04-28T23:02:16.041Z,32.37
2019-04-28T23:05:07.942Z,31.73
2019-04-28T23:07:42.901Z,31.90
2019-04-28T23:10:17.872Z,31.80
2019-04-28T23:12:52.690Z,31.77
2019-04-28T23:15:27.641Z,31.60
2019-04-28T23:18:02.380Z,32.30
2019-04-28T23:20:39.231Z,31.80
2019-04-28T23:23:15.035Z,32.10
2019-04-28T23:25:49.750Z,32.37
2019-04-28T23:28:24.496Z,32.50
2019-04-28T23:30:59.282Z,32.30
2019-04-28T23:33:34.019Z,32.53
2019-04-28T23:36:08.743Z,32.67
2019-04-28T23:38:43.542Z,32.23
2019-04-28T23:41:25.631Z,32.37
2019-04-28T23:44:00.430Z,31.90
2019-04-28T23:46:52.916Z,31.77
2019-04-28T23:49:29.099Z,32.93
2019-04-28T23:52:21.748Z,32.57
2019-04-28T23:54:58.641Z,33.10
2019-04-28T23:57:33.523Z,32.10
